Time;durP1;ratioP1;P1;durP2;ratioP2;P2;SDS_P1;SDS_P2;PMS_P1;PMS_P2;Temp;Humidity;BMP_temperature;BMP_pressure;BME280_temperature;BME280_humidity;BME280_pressure;Samples;Min_cycle;Max_cycle;Signal;HPM_P1;HPM_P2
2022/03/13 00:02:04;;;;;;;18.23;16.20;;;7.40;85.70;;;;;;4996753;28;20152;-69
2022/03/13 00:04:29;;;;;;;22.45;16.30;;;7.40;85.50;;;;;;4999035;28;20389;-69
2022/03/13 00:06:56;;;;;;;19.25;16.40;;;7.30;85.60;;;;;;5002850;28;20034;-69
2022/03/13 00:09:22;;;;;;;18.02;15.60;;;7.40;85.80;;;;;;5028696;28;20046;-69
2022/03/13 00:11:53;;;;;;;18.60;15.48;;;7.40;86.20;;;;;;4997654;28;20037;-69
2022/03/13 00:14:24;;;;;;;18.63;15.30;;;7.30;86.30;;;;;;4997551;28;20038;-68
2022/03/13 00:16:51;;;;;;;18.98;15.32;;;7.30;86.40;;;;;;5031506;28;20113;-69
2022/03/13 00:19:19;;;;;;;18.77;15.57;;;7.30;86.40;;;;;;5030577;28;20375;-69
2022/03/13 00:21:51;;;;;;;19.30;16.25;;;7.30;86.60;;;;;;4997729;28;20042;-69
2022/03/13 00:24:22;;;;;;;17.95;15.40;;;7.40;86.60;;;;;;5017825;28;20051;-69
2022/03/13 00:26:52;;;;;;;17.15;14.85;;;7.30;86.40;;;;;;5030674;28;20390;-69
2022/03/13 00:29:19;;;;;;;17.95;15.63;;;7.40;86.30;;;;;;5030302;28;20069;-69
2022/03/13 00:31:45;;;;;;;18.23;15.65;;;7.40;86.50;;;;;;5029819;28;20045;-69
2022/03/13 00:34:11;;;;;;;18.33;14.98;;;7.50;86.40;;;;;;5002733;28;20121;-69
2022/03/13 00:36:37;;;;;;;19.75;15.15;;;7.40;86.50;;;;;;5029322;28;20125;-69
2022/03/13 00:39:03;;;;;;;17.48;15.48;;;7.40;86.40;;;;;;4999579;28;20566;-69
2022/03/13 00:41:28;;;;;;;18.23;14.95;;;7.40;86.80;;;;;;5031781;28;20038;-69
2022/03/13 00:43:54;;;;;;;20.45;15.90;;;7.40;86.90;;;;;;5011831;28;20141;-69
2022/03/13 00:46:20;;;;;;;18.20;15.48;;;7.40;86.80;;;;;;4996835;28;20042;-69
2022/03/13 00:48:46;;;;;;;17.85;14.77;;;7.50;86.90;;;;;;4997480;28;21528;-70
2022/03/13 00:51:11;;;;;;;17.40;15.48;;;7.50;86.80;;;;;;4999430;28;20527;-69
2022/03/13 00:53:38;;;;;;;17.98;15.65;;;7.40;87.10;;;;;;5027737;28;20046;-69
2022/03/13 00:56:04;;;;;;;17.25;15.45;;;7.30;87.10;;;;;;5027496;28;20458;-69
2022/03/13 00:58:30;;;;;;;19.98;15.98;;;7.30;87.20;;;;;;5028818;28;20048;-69
2022/03/13 01:00:56;;;;;;;18.45;15.70;;;7.30;87.60;;;;;;4995870;28;20373;-69
2022/03/13 01:03:37;;;;;;;18.88;14.60;;;7.40;87.60;;;;;;4999446;28;20122;-69
2022/03/13 01:06:07;;;;;;;18.67;15.25;;;7.40;87.90;;;;;;4996733;28;20038;-69
2022/03/13 01:08:33;;;;;;;19.55;16.17;;;7.30;87.90;;;;;;5029453;28;20054;-69
2022/03/13 01:11:00;;;;;;;18.00;15.25;;;7.30;87.80;;;;;;4977779;28;20054;-69
2022/03/13 01:13:26;;;;;;;16.70;14.90;;;7.20;87.80;;;;;;5024526;28;20052;-69
2022/03/13 01:16:19;;;;;;;18.60;15.40;;;7.20;87.60;;;;;;5031452;28;20107;-69
2022/03/13 01:18:47;;;;;;;18.35;15.60;;;7.30;88.00;;;;;;5000517;28;20058;-69
2022/03/13 01:21:14;;;;;;;18.90;15.20;;;7.30;87.80;;;;;;4996750;28;20049;-69
2022/03/13 01:23:40;;;;;;;17.67;15.63;;;7.30;87.80;;;;;;5027589;28;20038;-69
2022/03/13 01:26:21;;;;;;;17.90;16.00;;;7.30;87.90;;;;;;5031636;28;20082;-69
2022/03/13 01:28:50;;;;;;;19.00;16.42;;;7.30;88.10;;;;;;5031457;28;20078;-69
2022/03/13 01:31:19;;;;;;;19.92;15.93;;;7.30;88.40;;;;;;5028811;28;20478;-68
2022/03/13 01:33:45;;;;;;;17.10;15.07;;;7.30;88.50;;;;;;5028287;28;20042;-68
2022/03/13 01:36:12;;;;;;;19.88;15.23;;;7.30;88.70;;;;;;5000353;28;20040;-68
2022/03/13 01:38:39;;;;;;;20.83;15.32;;;7.30;88.40;;;;;;4998566;28;20129;-68
2022/03/13 01:41:05;;;;;;;17.17;15.35;;;7.40;88.30;;;;;;5000755;28;20061;-69
2022/03/13 01:43:31;;;;;;;19.33;14.85;;;7.40;88.20;;;;;;5014266;28;20061;-68
2022/03/13 01:46:00;;;;;;;18.58;14.27;;;7.50;88.20;;;;;;5031264;28;20418;-68
2022/03/13 01:48:27;;;;;;;19.17;14.57;;;7.60;87.90;;;;;;5030919;28;20049;-68
2022/03/13 01:50:53;;;;;;;17.33;13.73;;;7.70;87.60;;;;;;4996139;28;20073;-68
2022/03/13 01:53:21;;;;;;;16.35;13.98;;;7.70;87.50;;;;;;5013018;28;20446;-68
2022/03/13 01:55:48;;;;;;;17.77;14.82;;;7.80;87.30;;;;;;5030506;28;20371;-68
2022/03/13 01:58:15;;;;;;;17.08;13.82;;;7.80;87.30;;;;;;4995032;28;20045;-68
2022/03/13 02:00:41;;;;;;;18.52;14.85;;;7.80;87.20;;;;;;5000384;28;20041;-68
2022/03/13 02:03:07;;;;;;;18.60;14.85;;;7.80;87.20;;;;;;4994942;28;20038;-68
2022/03/13 02:05:35;;;;;;;16.63;13.88;;;7.90;87.20;;;;;;4997509;28;20078;-68
2022/03/13 02:08:11;;;;;;;17.60;14.70;;;8.00;87.40;;;;;;4998232;28;20080;-68
2022/03/13 02:10:37;;;;;;;16.67;13.73;;;8.00;86.50;;;;;;4996137;28;20053;-68
2022/03/13 02:13:03;;;;;;;17.25;14.55;;;8.00;86.50;;;;;;4991954;28;20038;-68
2022/03/13 02:15:32;;;;;;;15.85;13.88;;;8.00;86.50;;;;;;4997951;28;20038;-69
2022/03/13 02:18:01;;;;;;;16.80;13.90;;;8.00;86.60;;;;;;5025179;28;20129;-68
2022/03/13 02:20:27;;;;;;;16.88;13.70;;;8.10;86.50;;;;;;4994252;28;20049;-68
2022/03/13 02:23:00;;;;;;;17.27;13.50;;;8.10;86.40;;;;;;5032576;28;20046;-68
2022/03/13 02:25:31;;;;;;;15.25;13.63;;;8.10;86.20;;;;;;4995612;28;20069;-68
2022/03/13 02:27:58;;;;;;;17.45;13.77;;;8.10;86.10;;;;;;4996183;28;20057;-68
2022/03/13 02:30:26;;;;;;;18.35;14.88;;;8.10;86.00;;;;;;5024640;28;20038;-68
2022/03/13 02:32:53;;;;;;;17.75;13.60;;;8.20;85.80;;;;;;4999273;28;20037;-68
2022/03/13 02:35:19;;;;;;;17.90;12.95;;;8.20;85.70;;;;;;4997949;28;20038;-68
2022/03/13 02:37:46;;;;;;;16.58;13.85;;;8.20;85.60;;;;;;5012467;28;20136;-68
2022/03/13 02:40:24;;;;;;;15.43;13.68;;;8.20;85.50;;;;;;5011133;28;20483;-69
2022/03/13 02:42:55;;;;;;;18.10;13.70;;;8.20;85.50;;;;;;4996852;28;20046;-68
2022/03/13 02:45:33;;;;;;;15.77;13.18;;;8.20;85.50;;;;;;5026658;28;20117;-68
2022/03/13 02:48:01;;;;;;;16.45;13.48;;;8.20;85.50;;;;;;4999955;28;20111;-69
2022/03/13 02:50:27;;;;;;;15.80;13.27;;;8.10;85.50;;;;;;5000719;28;20080;-69
2022/03/13 02:52:53;;;;;;;17.02;14.18;;;8.10;85.50;;;;;;4995911;28;20375;-68
2022/03/13 02:55:19;;;;;;;17.02;14.15;;;8.10;85.30;;;;;;5026415;28;20154;-69
2022/03/13 02:57:45;;;;;;;15.52;13.30;;;8.20;85.40;;;;;;4996813;28;20046;-68
2022/03/13 03:00:11;;;;;;;17.90;13.27;;;8.20;85.30;;;;;;5028797;28;20112;-68
2022/03/13 03:02:37;;;;;;;17.40;13.68;;;8.10;85.20;;;;;;5027938;28;20105;-68
2022/03/13 03:05:07;;;;;;;17.38;13.68;;;8.10;85.30;;;;;;4995323;28;20490;-68
2022/03/13 03:07:34;;;;;;;17.42;13.43;;;8.10;85.30;;;;;;4995151;28;20038;-69
2022/03/13 03:10:00;;;;;;;16.00;13.52;;;8.10;85.30;;;;;;4996630;28;20042;-68
2022/03/13 03:12:27;;;;;;;16.65;13.55;;;8.10;85.20;;;;;;4998454;28;20119;-69
2022/03/13 03:14:53;;;;;;;16.67;13.75;;;8.10;85.20;;;;;;5002662;28;20111;-68
2022/03/13 03:17:19;;;;;;;16.27;13.05;;;8.10;85.20;;;;;;4996988;28;20046;-68
2022/03/13 03:19:45;;;;;;;15.80;13.52;;;8.00;85.20;;;;;;4995694;28;20478;-68
2022/03/13 03:22:11;;;;;;;17.60;14.45;;;8.00;85.40;;;;;;5027040;28;20141;-68
2022/03/13 03:24:37;;;;;;;16.52;14.73;;;8.00;85.50;;;;;;4998824;28;20066;-69
2022/03/13 03:27:03;;;;;;;16.98;14.30;;;7.90;85.80;;;;;;5031563;28;20044;-68
2022/03/13 03:29:30;;;;;;;18.45;15.05;;;7.80;86.00;;;;;;5027132;28;20065;-68
2022/03/13 03:31:57;;;;;;;17.90;14.85;;;7.70;86.10;;;;;;4991931;28;20125;-68
2022/03/13 03:34:25;;;;;;;16.33;14.00;;;7.70;86.50;;;;;;5000669;28;20042;-68
2022/03/13 03:36:59;;;;;;;18.65;16.00;;;7.50;86.60;;;;;;4995469;28;20077;-68
2022/03/13 03:39:27;;;;;;;18.98;15.65;;;7.40;86.70;;;;;;5009553;28;20046;-68
2022/03/13 03:41:53;;;;;;;18.20;15.18;;;7.30;86.90;;;;;;4993261;28;20042;-68
2022/03/13 03:44:21;;;;;;;18.27;16.27;;;7.20;87.30;;;;;;4978280;28;20065;-70
2022/03/13 03:46:47;;;;;;;19.88;16.90;;;7.20;87.70;;;;;;4994389;28;20514;-68
2022/03/13 03:49:14;;;;;;;19.13;17.13;;;7.10;88.20;;;;;;4997584;28;20121;-68
2022/03/13 03:51:40;;;;;;;18.73;15.88;;;7.00;88.30;;;;;;4994143;28;20521;-68
2022/03/13 03:54:07;;;;;;;20.05;17.23;;;6.90;88.60;;;;;;5031103;28;20065;-68
2022/03/13 03:56:34;;;;;;;20.73;16.42;;;6.70;89.40;;;;;;4993147;28;20474;-68
2022/03/13 03:59:00;;;;;;;18.52;16.58;;;6.70;89.50;;;;;;5025465;28;20072;-68
2022/03/13 04:01:28;;;;;;;21.67;17.92;;;6.70;89.70;;;;;;4992989;28;20042;-68
2022/03/13 04:03:54;;;;;;;21.58;17.05;;;6.60;90.30;;;;;;5028210;28;20045;-68
2022/03/13 04:06:20;;;;;;;20.65;17.45;;;6.40;90.50;;;;;;4994843;28;20042;-68
2022/03/13 04:08:47;;;;;;;21.60;17.08;;;6.40;90.70;;;;;;5009352;28;20597;-68
2022/03/13 04:11:12;;;;;;;19.77;17.15;;;6.30;90.70;;;;;;4997240;28;20046;-69
2022/03/13 04:13:39;;;;;;;20.35;16.42;;;6.20;90.80;;;;;;4995837;28;20050;-69
2022/03/13 04:16:07;;;;;;;23.45;17.10;;;6.10;90.80;;;;;;4994486;28;20478;-68
2022/03/13 04:18:34;;;;;;;21.33;16.52;;;6.10;91.10;;;;;;5024424;28;20050;-69
2022/03/13 04:20:59;;;;;;;20.48;15.77;;;6.10;91.20;;;;;;5001345;28;20390;-69
2022/03/13 04:23:26;;;;;;;19.50;17.08;;;6.10;91.40;;;;;;4992110;28;20050;-69
2022/03/13 04:25:53;;;;;;;21.10;17.45;;;6.00;91.30;;;;;;4994368;28;20055;-68
2022/03/13 04:28:18;;;;;;;22.33;15.90;;;6.00;91.40;;;;;;5010991;28;20081;-68
2022/03/13 04:30:47;;;;;;;21.50;17.65;;;6.00;91.70;;;;;;5001823;28;20076;-68
2022/03/13 04:33:16;;;;;;;19.10;15.88;;;6.10;91.60;;;;;;5012407;28;20056;-68
2022/03/13 04:35:41;;;;;;;20.67;16.48;;;6.10;91.70;;;;;;5026246;28;20085;-68
2022/03/13 04:38:07;;;;;;;22.15;17.08;;;6.10;91.60;;;;;;5024745;28;20034;-69
2022/03/13 04:40:33;;;;;;;21.85;16.90;;;6.10;91.70;;;;;;4994039;28;20042;-68
2022/03/13 04:42:59;;;;;;;19.83;16.88;;;6.10;91.70;;;;;;5029478;28;20042;-68
2022/03/13 04:45:25;;;;;;;21.83;17.30;;;6.10;91.80;;;;;;5014451;28;20041;-68
2022/03/13 04:47:51;;;;;;;20.35;16.85;;;6.10;91.60;;;;;;5032275;28;20072;-68
2022/03/13 04:50:17;;;;;;;19.58;17.48;;;6.00;91.60;;;;;;5029019;28;20433;-68
2022/03/13 04:52:43;;;;;;;22.65;16.85;;;6.00;91.70;;;;;;5027391;28;20038;-68
2022/03/13 04:55:09;;;;;;;21.42;17.60;;;5.90;91.80;;;;;;5028379;28;20509;-68
2022/03/13 04:57:34;;;;;;;20.08;16.88;;;5.90;91.90;;;;;;5002253;28;20084;-68
2022/03/13 05:00:00;;;;;;;21.15;16.27;;;5.90;91.90;;;;;;4996033;28;20042;-68
2022/03/13 05:02:26;;;;;;;19.30;16.80;;;5.80;91.90;;;;;;4995814;28;20121;-68
2022/03/13 05:04:52;;;;;;;20.38;16.35;;;5.80;91.90;;;;;;5030065;28;20046;-68
2022/03/13 05:07:19;;;;;;;20.58;16.48;;;5.80;92.10;;;;;;5030069;28;20038;-68
2022/03/13 05:09:45;;;;;;;19.77;16.27;;;5.80;92.00;;;;;;4995578;28;20103;-68
2022/03/13 05:12:10;;;;;;;19.98;16.15;;;5.80;92.00;;;;;;4993914;28;20050;-68
2022/03/13 05:14:37;;;;;;;22.30;16.42;;;5.70;92.10;;;;;;5030291;28;20129;-68
2022/03/13 05:17:03;;;;;;;21.02;17.58;;;5.70;92.40;;;;;;4999515;28;20705;-68
2022/03/13 05:19:29;;;;;;;22.20;17.63;;;5.60;92.40;;;;;;4998048;28;20038;-68
2022/03/13 05:21:55;;;;;;;19.60;17.00;;;5.60;92.70;;;;;;5027491;28;20437;-68
2022/03/13 05:24:21;;;;;;;22.33;17.55;;;5.50;92.60;;;;;;5001286;28;20044;-68
2022/03/13 05:26:47;;;;;;;20.52;16.63;;;5.60;92.90;;;;;;4998874;28;20046;-68
2022/03/13 05:29:12;;;;;;;20.58;17.00;;;5.50;92.70;;;;;;5031435;28;20045;-71
2022/03/13 05:31:39;;;;;;;21.05;16.60;;;5.60;92.70;;;;;;4994981;28;20041;-68
2022/03/13 05:34:05;;;;;;;20.27;16.58;;;5.60;92.70;;;;;;5033746;28;20072;-68
2022/03/13 05:36:31;;;;;;;19.45;16.25;;;5.60;92.60;;;;;;5000265;28;20046;-68
2022/03/13 05:38:56;;;;;;;20.98;17.48;;;5.60;93.00;;;;;;5029212;28;20054;-68
2022/03/13 05:41:22;;;;;;;19.85;16.35;;;5.50;92.80;;;;;;4996552;28;20492;-68
2022/03/13 05:43:49;;;;;;;20.63;17.40;;;5.60;92.90;;;;;;5034366;28;20038;-68
2022/03/13 05:46:15;;;;;;;21.60;17.02;;;5.50;92.80;;;;;;5002407;28;20521;-69
2022/03/13 05:48:41;;;;;;;18.67;16.20;;;5.50;92.70;;;;;;5030880;28;20034;-68
2022/03/13 05:51:07;;;;;;;19.02;16.48;;;5.50;92.80;;;;;;4997885;28;20049;-68
2022/03/13 05:53:33;;;;;;;21.23;16.63;;;5.50;92.80;;;;;;4999575;28;20117;-68
2022/03/13 05:55:58;;;;;;;21.50;16.13;;;5.50;92.70;;;;;;4995458;28;20042;-68
2022/03/13 05:58:24;;;;;;;19.52;15.73;;;5.40;92.80;;;;;;4998966;28;20072;-68
2022/03/13 06:00:58;;;;;;;18.88;16.08;;;5.40;92.70;;;;;;4996645;28;21825;-68
2022/03/13 06:03:23;;;;;;;18.73;16.27;;;5.40;92.70;;;;;;5032461;28;20589;-68
2022/03/13 06:05:49;;;;;;;20.13;15.98;;;5.40;92.60;;;;;;4994432;28;20121;-68
2022/03/13 06:08:15;;;;;;;19.58;15.50;;;5.40;92.50;;;;;;4999040;28;20469;-68
2022/03/13 06:10:44;;;;;;;19.73;15.82;;;5.40;92.50;;;;;;4997160;28;20034;-68
2022/03/13 06:13:09;;;;;;;17.63;15.73;;;5.30;92.50;;;;;;5027388;28;20125;-68
2022/03/13 06:15:36;;;;;;;19.58;15.85;;;5.30;92.50;;;;;;4998390;28;20125;-68
2022/03/13 06:18:02;;;;;;;18.58;15.60;;;5.30;92.60;;;;;;5000384;28;20042;-68
2022/03/13 06:20:28;;;;;;;20.77;16.05;;;5.30;92.40;;;;;;5030506;28;20380;-68
2022/03/13 06:22:54;;;;;;;18.60;15.23;;;5.40;92.40;;;;;;5027186;28;20038;-68
2022/03/13 06:25:19;;;;;;;18.55;15.35;;;5.40;92.30;;;;;;4997602;28;20054;-68
2022/03/13 06:27:45;;;;;;;19.17;15.10;;;5.40;92.10;;;;;;5033162;28;20140;-68
2022/03/13 06:30:15;;;;;;;17.95;14.82;;;5.60;91.90;;;;;;4999293;28;20442;-68
2022/03/13 06:32:42;;;;;;;17.85;14.40;;;5.60;91.70;;;;;;4999082;28;20141;-68
2022/03/13 06:35:09;;;;;;;20.45;15.23;;;5.60;91.60;;;;;;5029885;28;20133;-68
2022/03/13 06:37:37;;;;;;;17.42;14.07;;;5.60;91.60;;;;;;4996102;28;20092;-68
2022/03/13 06:40:03;;;;;;;15.77;14.00;;;5.70;91.50;;;;;;5032233;28;20042;-68
2022/03/13 06:42:29;;;;;;;20.38;15.40;;;5.70;91.10;;;;;;5000458;28;20045;-68
2022/03/13 06:44:55;;;;;;;15.85;14.00;;;5.80;91.00;;;;;;5037373;28;20049;-68
2022/03/13 06:47:20;;;;;;;18.30;14.02;;;5.90;90.80;;;;;;4990587;28;20046;-68
2022/03/13 06:49:46;;;;;;;15.75;13.52;;;5.90;90.70;;;;;;5004710;28;20041;-67
2022/03/13 06:52:12;;;;;;;16.67;14.45;;;6.00;90.60;;;;;;5001967;28;20455;-68
2022/03/13 06:54:38;;;;;;;16.25;13.75;;;6.00;90.50;;;;;;5002637;28;20077;-68
2022/03/13 06:57:04;;;;;;;18.00;13.95;;;6.10;90.30;;;;;;5024765;28;20042;-68
2022/03/13 06:59:30;;;;;;;17.27;13.90;;;6.10;90.20;;;;;;5012596;28;20053;-68
2022/03/13 07:01:56;;;;;;;16.48;13.55;;;6.20;90.20;;;;;;5005021;28;20072;-68
2022/03/13 07:04:22;;;;;;;17.45;14.75;;;6.30;89.70;;;;;;5001694;28;20047;-68
2022/03/13 07:06:47;;;;;;;16.85;13.13;;;6.30;89.20;;;;;;4998172;28;20048;-68
2022/03/13 07:09:13;;;;;;;14.32;12.85;;;6.40;89.00;;;;;;5035872;28;20087;-68
2022/03/13 07:11:39;;;;;;;16.00;12.93;;;6.50;88.80;;;;;;4998488;28;20110;-68
2022/03/13 07:14:08;;;;;;;18.42;13.80;;;6.60;88.90;;;;;;4996411;28;20042;-68
2022/03/13 07:16:34;;;;;;;15.32;12.80;;;6.80;88.10;;;;;;4996315;28;20046;-68
2022/03/13 07:19:00;;;;;;;17.67;13.45;;;6.80;87.00;;;;;;5029035;28;20056;-69
2022/03/13 07:21:26;;;;;;;14.77;12.20;;;6.90;86.90;;;;;;5014938;28;20104;-69
2022/03/13 07:23:51;;;;;;;14.23;12.43;;;7.00;86.70;;;;;;4995846;28;20418;-69
2022/03/13 07:26:17;;;;;;;15.13;13.32;;;7.00;86.00;;;;;;5034092;28;20383;-69
2022/03/13 07:28:44;;;;;;;15.50;12.77;;;7.10;86.20;;;;;;5027025;28;20053;-69
2022/03/13 07:31:10;;;;;;;16.58;13.20;;;7.20;85.40;;;;;;5029252;28;20049;-69
2022/03/13 07:33:36;;;;;;;16.30;12.68;;;7.60;86.00;;;;;;4997779;28;20045;-69
2022/03/13 07:36:03;;;;;;;18.42;12.43;;;8.00;83.40;;;;;;5026971;28;20064;-69
2022/03/13 07:38:28;;;;;;;15.05;13.07;;;8.30;82.00;;;;;;4994371;28;20493;-68
2022/03/13 07:40:54;;;;;;;14.63;12.63;;;8.50;81.90;;;;;;5030482;28;20061;-68
2022/03/13 07:43:20;;;;;;;13.82;12.18;;;8.70;81.30;;;;;;5026657;28;20038;-69
2022/03/13 07:45:45;;;;;;;13.88;12.38;;;8.80;80.10;;;;;;4996479;28;20038;-69
2022/03/13 07:48:13;;;;;;;14.07;12.57;;;8.80;79.20;;;;;;4994710;28;20112;-68
2022/03/13 07:50:39;;;;;;;14.80;12.48;;;8.80;79.00;;;;;;5001043;28;20050;-68
2022/03/13 07:53:05;;;;;;;15.82;13.07;;;8.70;78.40;;;;;;5031183;28;20116;-68
2022/03/13 07:55:31;;;;;;;14.27;12.77;;;8.70;78.20;;;;;;4984132;28;20049;-68
2022/03/13 07:57:56;;;;;;;16.77;13.13;;;8.70;78.90;;;;;;5028532;28;20068;-68
2022/03/13 08:00:23;;;;;;;14.63;12.25;;;8.60;78.30;;;;;;5004844;28;20701;-68
2022/03/13 08:02:49;;;;;;;15.32;12.93;;;8.70;78.40;;;;;;5032301;28;20049;-68
2022/03/13 08:05:18;;;;;;;17.98;12.68;;;9.00;78.50;;;;;;5023045;28;20081;-68
2022/03/13 08:07:46;;;;;;;14.50;12.15;;;9.40;77.80;;;;;;4998539;28;20173;-68
2022/03/13 08:10:12;;;;;;;14.73;12.27;;;10.00;76.90;;;;;;5029672;28;20561;-68
2022/03/13 08:12:38;;;;;;;14.52;11.55;;;10.40;75.60;;;;;;5030233;28;20442;-68
2022/03/13 08:15:09;;;;;;;13.85;12.38;;;10.70;74.80;;;;;;4992698;28;20050;-69
2022/03/13 08:17:35;;;;;;;13.85;11.50;;;10.80;72.10;;;;;;5032032;28;20053;-69
2022/03/13 08:20:03;;;;;;;13.27;11.57;;;10.70;71.80;;;;;;5001023;28;20042;-68
2022/03/13 08:22:29;;;;;;;13.48;12.05;;;10.70;71.70;;;;;;5004164;28;20042;-68
2022/03/13 08:24:55;;;;;;;13.93;12.50;;;10.70;71.50;;;;;;4990872;28;20064;-68
2022/03/13 08:27:21;;;;;;;13.30;11.55;;;11.10;69.50;;;;;;5014428;28;20848;-68
2022/03/13 08:29:47;;;;;;;13.93;11.05;;;11.90;68.70;;;;;;5002537;28;20038;-68
2022/03/13 08:32:12;;;;;;;13.63;11.95;;;12.80;65.20;;;;;;4988173;28;20419;-68
2022/03/13 08:34:39;;;;;;;13.23;11.82;;;13.40;64.10;;;;;;5001099;28;20125;-68
2022/03/13 08:37:05;;;;;;;13.52;10.88;;;13.90;62.30;;;;;;5035408;28;20112;-68
2022/03/13 08:39:32;;;;;;;12.95;11.65;;;14.30;60.90;;;;;;5011111;28;20489;-68
2022/03/13 08:41:58;;;;;;;13.02;11.65;;;14.60;58.70;;;;;;5035032;28;20134;-68
2022/03/13 08:44:23;;;;;;;12.90;11.57;;;15.00;58.30;;;;;;5001833;28;20533;-68
2022/03/13 08:46:49;;;;;;;12.55;11.23;;;15.20;56.70;;;;;;5000373;28;20850;-68
2022/03/13 08:49:15;;;;;;;12.65;10.63;;;15.20;55.90;;;;;;4998992;28;20378;-68
2022/03/13 08:51:41;;;;;;;12.27;11.07;;;15.50;53.60;;;;;;5026577;28;20313;-68
2022/03/13 08:54:08;;;;;;;12.95;11.55;;;15.40;54.60;;;;;;5033736;28;20061;-68
2022/03/13 08:56:35;;;;;;;13.73;11.00;;;15.80;53.40;;;;;;4998444;28;20065;-68
2022/03/13 08:59:02;;;;;;;11.68;10.48;;;16.30;53.50;;;;;;4998638;28;20472;-68
2022/03/13 09:01:28;;;;;;;13.90;10.93;;;16.70;51.90;;;;;;5027335;28;20038;-68
2022/03/13 09:03:54;;;;;;;12.05;10.77;;;16.70;50.00;;;;;;4999598;28;20129;-69
2022/03/13 09:06:20;;;;;;;11.85;10.63;;;16.80;49.90;;;;;;4994385;28;20115;-68
2022/03/13 09:08:46;;;;;;;12.88;11.57;;;17.10;50.40;;;;;;4993491;28;20058;-69
2022/03/13 09:11:11;;;;;;;11.35;10.25;;;17.60;50.60;;;;;;4993524;28;20140;-69
2022/03/13 09:13:37;;;;;;;11.25;10.15;;;18.00;49.60;;;;;;4998666;28;20366;-69
2022/03/13 09:16:04;;;;;;;12.30;10.85;;;18.30;48.50;;;;;;4997365;28;20467;-69
2022/03/13 09:18:30;;;;;;;11.88;10.43;;;18.70;47.80;;;;;;4996558;28;20091;-68
2022/03/13 09:20:57;;;;;;;12.23;11.10;;;19.00;47.40;;;;;;5005074;28;20646;-68
2022/03/13 09:23:24;;;;;;;11.50;10.35;;;19.20;46.50;;;;;;4999540;28;20415;-69
2022/03/13 09:25:53;;;;;;;11.43;10.32;;;19.40;45.00;;;;;;4998372;28;20576;-69
2022/03/13 09:28:19;;;;;;;11.77;10.52;;;19.50;45.60;;;;;;4995472;28;20060;-69
2022/03/13 09:30:46;;;;;;;11.20;10.10;;;19.60;43.90;;;;;;5033139;28;20101;-69
2022/03/13 09:33:12;;;;;;;11.77;10.65;;;19.80;42.70;;;;;;5025938;28;20100;-69
2022/03/13 09:35:39;;;;;;;11.32;10.18;;;20.00;44.20;;;;;;5002008;28;20402;-69
2022/03/13 09:38:04;;;;;;;12.35;10.25;;;20.20;43.20;;;;;;5026936;28;20046;-70
2022/03/13 09:40:33;;;;;;;12.60;11.27;;;20.40;42.20;;;;;;5032079;28;20073;-70
2022/03/13 09:43:00;;;;;;;11.20;10.02;;;20.40;41.20;;;;;;4996305;28;20086;-70
2022/03/13 09:45:26;;;;;;;11.00;9.77;;;20.60;41.00;;;;;;4997062;28;20061;-69
2022/03/13 09:47:53;;;;;;;11.18;10.10;;;20.60;40.80;;;;;;4993955;28;20370;-70
2022/03/13 09:50:21;;;;;;;11.05;9.95;;;20.70;41.00;;;;;;5001545;28;20402;-69
2022/03/13 09:52:48;;;;;;;11.43;10.30;;;20.60;40.30;;;;;;4998211;28;20129;-69
2022/03/13 09:55:14;;;;;;;11.60;10.50;;;20.70;40.50;;;;;;5031774;28;20054;-69
2022/03/13 09:57:42;;;;;;;11.88;10.65;;;20.70;40.50;;;;;;5003577;28;20033;-69
2022/03/13 10:00:11;;;;;;;11.10;10.05;;;20.70;40.20;;;;;;5036507;28;20050;-69
2022/03/13 10:02:38;;;;;;;12.10;10.82;;;20.60;39.80;;;;;;4991804;28;20489;-69
2022/03/13 10:05:16;;;;;;;11.63;10.48;;;20.40;39.90;;;;;;4994854;28;20606;-69
2022/03/13 10:08:02;;;;;;;13.85;10.30;;;20.40;39.80;;;;;;4998363;28;20505;-74
2022/03/13 10:10:31;;;;;;;12.00;10.80;;;20.60;39.30;;;;;;5028815;28;20077;-73
2022/03/13 10:12:57;;;;;;;12.98;11.07;;;20.70;40.30;;;;;;4994344;28;20466;-74
2022/03/13 10:15:23;;;;;;;12.10;10.90;;;20.70;39.30;;;;;;4995703;28;20060;-72
2022/03/13 10:17:48;;;;;;;11.70;10.60;;;20.70;40.00;;;;;;5013682;28;20056;-74
2022/03/13 10:20:25;;;;;;;11.23;10.10;;;20.60;39.80;;;;;;5030266;28;20061;-75
2022/03/13 10:23:00;;;;;;;13.38;11.52;;;20.60;40.00;;;;;;5011534;28;20050;-73
2022/03/13 10:25:37;;;;;;;12.27;10.45;;;20.70;39.50;;;;;;5011181;28;20050;-73
2022/03/13 10:28:14;;;;;;;12.38;10.98;;;20.80;40.30;;;;;;5030288;28;20042;-74
2022/03/13 10:30:41;;;;;;;11.85;10.55;;;20.90;40.30;;;;;;4999901;28;20077;-74
2022/03/13 10:33:08;;;;;;;12.20;11.05;;;20.90;40.00;;;;;;5037388;28;20037;-74
2022/03/13 10:35:38;;;;;;;12.80;10.93;;;21.20;39.80;;;;;;5007242;28;20160;-73
2022/03/13 10:38:18;;;;;;;13.43;11.93;;;21.50;40.40;;;;;;5018044;28;20053;-72
2022/03/13 10:40:45;;;;;;;12.13;10.98;;;21.70;39.70;;;;;;5029404;28;20050;-68
2022/03/13 10:43:18;;;;;;;11.55;10.45;;;21.80;39.50;;;;;;4997079;28;20034;-67
2022/03/13 10:45:51;;;;;;;23.08;11.75;;;21.80;40.30;;;;;;4996265;28;20048;-68
2022/03/13 10:48:20;;;;;;;12.70;11.40;;;21.80;40.00;;;;;;5035841;28;20073;-68
2022/03/13 10:50:47;;;;;;;11.75;10.57;;;21.70;40.20;;;;;;5002213;28;20033;-69
2022/03/13 10:53:13;;;;;;;12.05;10.85;;;21.60;39.80;;;;;;4999400;28;20719;-68
2022/03/13 10:55:41;;;;;;;14.75;10.80;;;21.50;40.30;;;;;;4998522;28;20049;-68
2022/03/13 10:58:07;;;;;;;13.48;11.75;;;21.70;39.40;;;;;;5034877;28;20076;-67
2022/03/13 11:00:34;;;;;;;14.55;11.85;;;21.50;39.90;;;;;;5031225;28;20053;-68
2022/03/13 11:03:11;;;;;;;12.77;11.55;;;21.60;40.90;;;;;;5002124;28;20046;-67
2022/03/13 11:05:37;;;;;;;12.70;11.50;;;21.90;40.00;;;;;;4996543;28;20050;-67
2022/03/13 11:08:04;;;;;;;12.82;11.52;;;21.80;39.50;;;;;;5000225;28;20135;-67
2022/03/13 11:10:36;;;;;;;12.95;11.50;;;21.60;39.80;;;;;;5029122;28;20192;-67
2022/03/13 11:13:05;;;;;;;12.40;11.20;;;21.70;40.50;;;;;;4997499;28;20038;-67
2022/03/13 11:15:34;;;;;;;12.95;11.75;;;22.00;40.60;;;;;;5032896;28;20145;-67
2022/03/13 11:17:59;;;;;;;12.68;11.45;;;22.00;39.70;;;;;;5001395;28;20057;-67
2022/03/13 11:20:25;;;;;;;12.55;11.35;;;21.70;39.10;;;;;;4995596;28;20460;-68
2022/03/13 11:22:51;;;;;;;12.23;11.07;;;21.50;39.00;;;;;;5001106;28;20621;-68
2022/03/13 11:25:17;;;;;;;12.73;11.43;;;21.30;39.10;;;;;;4994471;28;20133;-68
2022/03/13 11:27:45;;;;;;;13.77;11.50;;;21.00;39.90;;;;;;5003267;28;20108;-67
2022/03/13 11:30:17;;;;;;;43.38;13.25;;;20.90;40.40;;;;;;5005421;28;20045;-67
2022/03/13 11:32:53;;;;;;;12.05;10.93;;;21.00;40.00;;;;;;5029659;28;20082;-65
2022/03/13 11:35:25;;;;;;;16.98;11.75;;;21.10;39.80;;;;;;4999340;28;20118;-66
2022/03/13 11:38:00;;;;;;;13.60;12.07;;;21.10;39.90;;;;;;4995741;28;20046;-67
2022/03/13 11:40:35;;;;;;;13.02;11.25;;;21.10;40.70;;;;;;4994858;28;20129;-67
2022/03/13 11:43:21;;;;;;;12.75;11.45;;;21.30;39.70;;;;;;4993728;28;20041;-66
2022/03/13 11:46:00;;;;;;;12.95;11.70;;;21.30;39.60;;;;;;5001984;28;20049;-66
2022/03/13 11:48:26;;;;;;;12.95;11.65;;;21.50;40.30;;;;;;4993993;28;20119;-67
2022/03/13 11:51:01;;;;;;;12.88;11.57;;;21.40;39.40;;;;;;5001979;28;20049;-67
2022/03/13 11:53:40;;;;;;;13.38;12.07;;;21.40;39.80;;;;;;5000943;28;20060;-66
2022/03/13 11:56:10;;;;;;;13.02;11.80;;;21.30;40.00;;;;;;4999334;28;20046;-65
2022/03/13 11:58:46;;;;;;;15.60;14.00;;;21.20;40.00;;;;;;5033482;28;20067;-70
2022/03/13 12:01:37;;;;;;;14.00;12.52;;;21.50;39.50;;;;;;5005282;28;20046;-69
2022/03/13 12:04:03;;;;;;;13.50;12.15;;;21.50;39.20;;;;;;5033040;28;20037;-69
2022/03/13 12:06:47;;;;;;;13.25;11.95;;;21.30;38.40;;;;;;5000911;28;20033;-69
2022/03/13 12:09:17;;;;;;;13.60;12.30;;;21.10;38.90;;;;;;5009036;28;20063;-70
2022/03/13 12:11:45;;;;;;;14.07;12.68;;;21.10;40.30;;;;;;5004329;28;20038;-69
2022/03/13 12:14:12;;;;;;;13.27;11.98;;;21.10;40.00;;;;;;4996458;28;20051;-68
2022/03/13 12:16:40;;;;;;;13.77;12.18;;;21.10;40.40;;;;;;5004649;28;20041;-67
2022/03/13 12:19:07;;;;;;;14.32;12.93;;;21.20;39.60;;;;;;5000738;28;20115;-69
2022/03/13 12:21:34;;;;;;;14.43;12.52;;;21.20;40.00;;;;;;5001752;28;20073;-70
2022/03/13 12:24:16;;;;;;;14.45;13.05;;;21.10;39.50;;;;;;4994481;28;20065;-70
2022/03/13 12:26:43;;;;;;;12.98;11.68;;;21.00;39.50;;;;;;5002505;28;20057;-72
2022/03/13 12:29:12;;;;;;;16.92;12.20;;;21.10;39.80;;;;;;5002494;28;20441;-71
2022/03/13 12:31:49;;;;;;;18.05;12.35;;;21.20;39.50;;;;;;5035118;28;20052;-71
2022/03/13 12:34:28;;;;;;;13.77;11.95;;;21.30;39.70;;;;;;5026278;28;20122;-74
2022/03/13 12:36:54;;;;;;;14.38;12.75;;;21.40;39.50;;;;;;5003557;28;20050;-72